Time;durP1;ratioP1;P1;durP2;ratioP2;P2;SDS_P1;SDS_P2;PMS_P1;PMS_P2;Temp;Humidity;BMP_temperature;BMP_pressure;BME280_temperature;BME280_humidity;BME280_pressure;Samples;Min_cycle;Max_cycle;Signal;HPM_P1;HPM_P2
2021/05/23 00:00:46;;;;;;;34.92;11.33;;;;;;;11.87;73.08;100553.67;1687948;85;21230;-64
2021/05/23 00:03:51;;;;;;;25.75;10.95;;;;;;;11.78;72.93;100552.53;1687772;85;21763;-61
2021/05/23 00:06:57;;;;;;;23.27;10.23;;;;;;;11.68;73.14;100553.25;1687697;85;21210;-61
2021/05/23 00:10:05;;;;;;;24.55;10.85;;;;;;;11.66;73.58;100563.53;1687898;85;21254;-61
2021/05/23 00:13:11;;;;;;;27.50;11.22;;;;;;;11.67;73.78;100555.67;1687861;84;21234;-61
2021/05/23 00:16:28;;;;;;;28.47;11.43;;;;;;;11.64;73.65;100554.63;1687836;85;21206;-60
2021/05/23 00:19:35;;;;;;;21.82;10.72;;;;;;;11.58;74.07;100563.54;1687545;85;21227;-60
2021/05/23 00:22:41;;;;;;;24.32;11.10;;;;;;;11.57;74.13;100559.97;1687882;85;21298;-60
2021/05/23 00:25:51;;;;;;;22.58;9.93;;;;;;;11.54;73.94;100556.72;1687606;85;21739;-60
2021/05/23 00:28:57;;;;;;;21.68;10.20;;;;;;;11.49;74.19;100560.00;1687926;85;21191;-59
2021/05/23 00:32:03;;;;;;;19.12;9.83;;;;;;;11.50;74.24;100560.33;1687834;85;21214;-60
2021/05/23 00:35:10;;;;;;;18.75;9.25;;;;;;;11.50;74.05;100560.83;1687793;85;21234;-61
2021/05/23 00:38:17;;;;;;;28.10;11.30;;;;;;;11.43;73.88;100557.11;1687903;85;21347;-59
2021/05/23 00:41:23;;;;;;;21.37;9.25;;;;;;;11.38;74.16;100560.38;1687889;85;21222;-59
2021/05/23 00:44:30;;;;;;;20.43;8.90;;;;;;;11.36;74.17;100573.91;1692011;84;21234;-58
2021/05/23 00:47:36;;;;;;;18.60;8.88;;;;;;;11.35;74.30;100573.04;1694986;84;21359;-60
2021/05/23 00:50:41;;;;;;;21.23;8.88;;;;;;;11.34;74.18;100567.73;1675176;83;21274;-58
2021/05/23 00:53:45;;;;;;;17.12;8.55;;;;;;;11.26;74.08;100561.77;1655574;86;21215;-60
2021/05/23 00:56:51;;;;;;;15.80;7.85;;;;;;;11.20;74.18;100564.36;1655383;86;21200;-60
2021/05/23 00:59:57;;;;;;;18.77;8.48;;;;;;;11.18;74.27;100562.33;1655763;86;21290;-60
2021/05/23 01:03:02;;;;;;;20.65;9.13;;;;;;;11.15;74.15;100566.77;1655424;86;21207;-60
2021/05/23 01:06:13;;;;;;;20.82;8.90;;;;;;;11.09;74.20;100556.51;1651688;86;21551;-60
2021/05/23 01:09:18;;;;;;;18.10;7.97;;;;;;;11.05;74.37;100562.02;1654962;86;21251;-59
2021/05/23 01:12:37;;;;;;;17.80;8.33;;;;;;;11.05;74.51;100571.59;1654726;86;21223;-60
2021/05/23 01:15:48;;;;;;;23.35;9.28;;;;;;;11.03;74.33;100569.54;1654599;86;21339;-60
2021/05/23 01:18:58;;;;;;;16.75;9.25;;;;;;;11.00;74.67;100571.27;1654695;86;21740;-59
2021/05/23 01:22:51;;;;;;;23.80;10.23;;;;;;;11.01;74.82;100576.56;1655866;86;21230;-61
2021/05/23 01:26:02;;;;;;;15.03;7.70;;;;;;;10.99;75.11;100577.78;1651277;86;21299;-59
2021/05/23 01:29:09;;;;;;;16.82;8.43;;;;;;;11.00;75.51;100568.02;1611246;88;21419;-58
2021/05/23 01:32:14;;;;;;;18.48;9.10;;;;;;;11.03;75.75;100559.95;1632005;88;21792;-58
2021/05/23 01:35:24;;;;;;;20.23;8.40;;;;;;;11.04;75.70;100562.52;1628726;88;21987;-59
2021/05/23 01:38:31;;;;;;;20.55;8.68;;;;;;;11.03;75.62;100553.97;1665553;86;21413;-61
2021/05/23 01:41:36;;;;;;;17.87;8.70;;;;;;;11.06;75.77;100552.75;1664239;86;21357;-60
2021/05/23 01:44:41;;;;;;;19.60;8.45;;;;;;;11.07;75.75;100549.00;1659848;83;21303;-59
2021/05/23 01:47:47;;;;;;;17.48;8.08;;;;;;;11.10;75.82;100550.86;1651220;87;21848;-60
2021/05/23 01:50:54;;;;;;;19.45;8.63;;;;;;;11.11;75.73;100561.31;1651276;87;21224;-60
2021/05/23 01:54:01;;;;;;;19.80;9.03;;;;;;;11.13;75.75;100560.62;1651354;87;21287;-60
2021/05/23 01:57:08;;;;;;;16.25;8.55;;;;;;;11.08;75.31;100553.44;1651315;87;21216;-60
2021/05/23 02:00:15;;;;;;;19.87;9.55;;;;;;;11.02;75.14;100566.47;1651226;87;21882;-59
2021/05/23 02:03:21;;;;;;;15.43;8.35;;;;;;;10.95;75.36;100559.46;1651309;87;21236;-60
2021/05/23 02:06:26;;;;;;;17.70;8.38;;;;;;;10.95;75.47;100566.81;1651200;87;21247;-59
2021/05/23 02:09:31;;;;;;;17.80;7.60;;;;;;;10.97;75.27;100568.87;1651353;87;21543;-59
2021/05/23 02:12:37;;;;;;;19.02;7.42;;;;;;;10.95;74.96;100573.66;1651304;87;21239;-62
2021/05/23 02:15:43;;;;;;;19.55;8.95;;;;;;;10.93;74.87;100569.73;1651232;87;21828;-60
2021/05/23 02:18:49;;;;;;;15.85;9.13;;;;;;;10.93;74.85;100568.86;1651147;87;21393;-59
2021/05/23 02:21:54;;;;;;;16.87;9.00;;;;;;;10.92;74.75;100568.53;1651217;87;21354;-59
2021/05/23 02:25:01;;;;;;;17.25;8.40;;;;;;;10.89;74.79;100575.23;1651156;87;21247;-59
2021/05/23 02:28:08;;;;;;;19.05;8.65;;;;;;;10.90;74.88;100571.95;1651181;87;21385;-60
2021/05/23 02:31:14;;;;;;;17.87;8.78;;;;;;;10.89;74.68;100569.75;1651327;87;21365;-60
2021/05/23 02:34:19;;;;;;;16.12;7.15;;;;;;;10.87;74.65;100579.14;1651215;87;21354;-59
2021/05/23 02:37:25;;;;;;;17.73;7.75;;;;;;;10.87;74.69;100579.14;1651275;87;21184;-59
2021/05/23 02:40:32;;;;;;;14.83;8.63;;;;;;;10.85;74.62;100580.69;1651292;87;21302;-60
2021/05/23 02:43:37;;;;;;;15.28;8.18;;;;;;;10.86;74.83;100578.28;1651223;87;21204;-60
2021/05/23 02:46:42;;;;;;;20.40;7.42;;;;;;;10.89;74.90;100578.47;1656326;85;21239;-60
2021/05/23 02:49:51;;;;;;;20.70;8.23;;;;;;;10.92;75.15;100579.48;1658551;86;21243;-60
2021/05/23 02:52:56;;;;;;;17.90;7.97;;;;;;;10.96;75.22;100572.12;1658731;86;21267;-60
2021/05/23 02:56:03;;;;;;;12.63;7.53;;;;;;;11.03;75.43;100566.30;1658537;86;21299;-60
2021/05/23 02:59:09;;;;;;;16.82;7.22;;;;;;;11.15;75.53;100561.28;1658589;86;21230;-60
2021/05/23 03:02:16;;;;;;;20.32;7.80;;;;;;;11.25;75.53;100564.19;1658563;86;21219;-60
2021/05/23 03:05:24;;;;;;;17.45;7.67;;;;;;;11.32;75.75;100563.80;1658531;86;21269;-59
2021/05/23 03:08:30;;;;;;;16.70;6.80;;;;;;;11.47;75.83;100567.53;1658539;86;21247;-60
2021/05/23 03:11:35;;;;;;;17.05;6.75;;;;;;;11.63;75.77;100559.28;1658620;86;21188;-60
2021/05/23 03:14:41;;;;;;;16.93;7.33;;;;;;;11.76;75.68;100556.83;1658501;86;21311;-61
2021/05/23 03:17:47;;;;;;;18.07;6.25;;;;;;;11.88;75.79;100551.27;1658807;86;21275;-61
2021/05/23 03:20:54;;;;;;;20.30;7.75;;;;;;;12.01;75.99;100537.81;1658543;86;21239;-57
2021/05/23 03:24:00;;;;;;;13.03;6.37;;;;;;;12.16;75.79;100568.08;1658671;86;21274;-59
2021/05/23 03:27:06;;;;;;;10.60;5.72;;;;;;;12.26;74.92;100553.58;1658498;86;21869;-60
2021/05/23 03:30:15;;;;;;;7.97;5.15;;;;;;;12.38;74.18;100550.77;1658544;86;21286;-60
2021/05/23 03:33:22;;;;;;;9.93;6.10;;;;;;;12.49;73.47;100543.47;1658557;86;21251;-60
2021/05/23 03:36:27;;;;;;;10.60;5.35;;;;;;;12.64;73.11;100540.23;1658603;86;21264;-60
2021/05/23 03:39:33;;;;;;;9.78;4.95;;;;;;;12.81;72.34;100534.91;1658635;86;21270;-58
2021/05/23 03:42:38;;;;;;;7.10;4.30;;;;;;;12.98;71.63;100528.75;1658612;86;21203;-59
2021/05/23 03:45:43;;;;;;;8.83;4.22;;;;;;;13.15;70.52;100527.05;1658511;86;21299;-58
2021/05/23 03:48:48;;;;;;;10.35;4.10;;;;;;;13.34;69.28;100523.73;1648972;87;21227;-58
2021/05/23 03:51:53;;;;;;;8.00;4.30;;;;;;;13.52;68.25;100524.72;1649664;86;21228;-58
2021/05/23 03:54:59;;;;;;;8.25;4.08;;;;;;;13.72;67.49;100529.08;1649131;87;21437;-59
2021/05/23 03:58:07;;;;;;;9.68;4.08;;;;;;;13.91;66.53;100522.96;1649640;86;21354;-59
2021/05/23 04:01:13;;;;;;;7.33;3.87;;;;;;;14.09;65.83;100523.39;1649106;87;21370;-58
2021/05/23 04:04:21;;;;;;;8.83;3.95;;;;;;;14.25;65.02;100522.67;1649077;87;21247;-58
2021/05/23 04:07:29;;;;;;;6.97;4.15;;;;;;;14.42;64.49;100526.00;1649301;86;21418;-59
2021/05/23 04:10:40;;;;;;;9.10;4.47;;;;;;;14.59;63.95;100517.78;1649319;86;21413;-59
2021/05/23 04:13:44;;;;;;;6.65;4.20;;;;;;;14.73;63.91;100519.08;1649149;86;21366;-59
2021/05/23 04:16:51;;;;;;;7.37;5.00;;;;;;;14.89;64.54;100526.20;1649864;86;21473;-59
2021/05/23 04:19:56;;;;;;;8.93;4.58;;;;;;;15.03;63.76;100517.00;1649148;86;21369;-58
2021/05/23 04:23:02;;;;;;;8.00;3.47;;;;;;;15.17;63.59;100527.58;1649134;87;21347;-60
2021/05/23 04:26:09;;;;;;;7.08;4.20;;;;;;;15.30;63.05;100526.30;1649175;87;21292;-60
2021/05/23 04:29:14;;;;;;;9.33;3.92;;;;;;;15.45;61.56;100527.04;1649192;86;21528;-60
2021/05/23 04:32:20;;;;;;;5.87;3.67;;;;;;;15.58;61.16;100522.46;1649603;86;21350;-60
2021/05/23 04:35:25;;;;;;;13.25;4.25;;;;;;;15.74;60.66;100523.50;1649257;86;21389;-60
2021/05/23 04:38:32;;;;;;;12.85;4.65;;;;;;;15.89;60.49;100530.22;1648940;87;21216;-60
2021/05/23 04:41:37;;;;;;;8.08;4.50;;;;;;;16.05;60.97;100532.09;1649393;86;21226;-61
2021/05/23 04:44:42;;;;;;;10.38;5.05;;;;;;;16.18;61.09;100527.14;1649200;86;21236;-60
2021/05/23 04:47:48;;;;;;;9.63;4.75;;;;;;;16.34;61.18;100532.28;1651115;84;22030;-60
2021/05/23 04:50:56;;;;;;;8.30;5.10;;;;;;;16.49;61.41;100541.81;1649685;86;21740;-60
2021/05/23 04:54:02;;;;;;;11.35;4.25;;;;;;;16.65;61.20;100546.39;1649205;86;21363;-58
2021/05/23 04:57:07;;;;;;;8.35;4.10;;;;;;;16.81;60.33;100542.38;1645038;86;21374;-58
2021/05/23 05:00:18;;;;;;;6.92;3.35;;;;;;;16.96;59.79;100549.92;1614638;89;21757;-58
2021/05/23 05:03:24;;;;;;;7.80;3.52;;;;;;;17.10;59.11;100541.94;1649089;87;21263;-59
2021/05/23 05:06:31;;;;;;;10.82;3.17;;;;;;;17.25;58.17;100549.48;1645471;86;21319;-60
2021/05/23 05:09:37;;;;;;;8.58;3.02;;;;;;;17.41;57.66;100546.27;1599722;89;21272;-60
2021/05/23 05:12:43;;;;;;;11.55;3.65;;;;;;;17.55;57.23;100547.97;1649302;87;21224;-60
2021/05/23 05:15:52;;;;;;;11.88;3.25;;;;;;;17.68;56.44;100554.31;1645314;86;21259;-61
2021/05/23 05:18:57;;;;;;;10.53;3.35;;;;;;;17.82;54.97;100553.75;1615944;89;21260;-61
2021/05/23 05:22:03;;;;;;;12.13;3.10;;;;;;;17.94;53.96;100547.83;1650191;87;21358;-59
2021/05/23 05:25:09;;;;;;;11.03;2.87;;;;;;;18.09;53.41;100544.26;1646534;86;21791;-59
2021/05/23 05:28:14;;;;;;;5.67;2.45;;;;;;;18.25;53.58;100540.95;1615664;89;21291;-60
2021/05/23 05:31:20;;;;;;;6.45;2.50;;;;;;;18.37;52.21;100546.13;1649539;87;21212;-60
2021/05/23 05:34:25;;;;;;;13.72;3.42;;;;;;;18.51;51.73;100542.22;1646579;86;21389;-57
2021/05/23 05:37:33;;;;;;;9.55;2.60;;;;;;;18.64;51.39;100542.67;1616385;89;21272;-58
2021/05/23 05:40:39;;;;;;;4.40;2.08;;;;;;;18.75;50.44;100540.56;1650783;87;21377;-59
2021/05/23 05:43:46;;;;;;;3.42;1.98;;;;;;;18.88;50.48;100545.48;1646824;86;21240;-59
2021/05/23 05:46:52;;;;;;;2.70;2.00;;;;;;;19.01;49.93;100546.73;1614323;89;21394;-59
2021/05/23 05:49:58;;;;;;;5.50;1.70;;;;;;;19.16;49.75;100548.65;1655177;84;21360;-59
2021/05/23 05:53:06;;;;;;;3.47;1.90;;;;;;;19.30;49.63;100543.31;1659276;86;21875;-60
2021/05/23 05:56:13;;;;;;;3.60;1.47;;;;;;;19.47;49.47;100547.75;1659333;86;21397;-60
2021/05/23 05:59:19;;;;;;;3.52;1.60;;;;;;;19.62;48.80;100549.60;1659029;86;21752;-59
2021/05/23 06:02:28;;;;;;;2.05;1.22;;;;;;;19.79;47.21;100546.52;1652842;86;21219;-59
2021/05/23 06:05:35;;;;;;;2.75;1.22;;;;;;;19.93;46.40;100543.05;1652719;86;21389;-59
2021/05/23 06:08:40;;;;;;;2.20;1.07;;;;;;;20.04;45.65;100545.87;1653594;83;21250;-59
2021/05/23 06:11:48;;;;;;;3.00;1.22;;;;;;;20.13;44.99;100553.36;1679884;85;21950;-60
2021/05/23 06:14:53;;;;;;;3.83;1.50;;;;;;;20.20;44.86;100549.44;1679732;85;21228;-59
2021/05/23 06:17:59;;;;;;;5.12;3.83;;;;;;;20.26;45.04;100547.14;1680066;85;21200;-59
2021/05/23 06:21:06;;;;;;;9.00;4.78;;;;;;;20.31;45.07;100556.16;1686262;85;21390;-59
2021/05/23 06:24:15;;;;;;;8.40;5.35;;;;;;;20.35;45.10;100553.20;1680695;85;21291;-58
2021/05/23 06:27:20;;;;;;;4.72;2.40;;;;;;;20.45;45.08;100553.50;1680227;85;21359;-59
2021/05/23 06:30:28;;;;;;;5.00;3.05;;;;;;;20.56;45.40;100556.86;1680095;85;21259;-58
2021/05/23 06:33:34;;;;;;;5.97;2.15;;;;;;;20.64;45.22;100547.62;1687085;85;21236;-58
2021/05/23 06:36:41;;;;;;;5.65;2.25;;;;;;;20.71;45.29;100551.16;1685729;85;21284;-60
2021/05/23 06:39:48;;;;;;;2.05;1.42;;;;;;;20.84;45.11;100540.37;1686277;85;21382;-65
2021/05/23 06:42:54;;;;;;;5.03;1.65;;;;;;;21.04;45.01;100533.95;1678830;85;21228;-61
2021/05/23 06:46:00;;;;;;;3.85;1.70;;;;;;;21.27;44.47;100534.52;1680205;85;21426;-58
2021/05/23 06:49:07;;;;;;;3.52;1.62;;;;;;;21.54;44.18;100530.16;1680031;85;21236;-59
2021/05/23 06:52:15;;;;;;;3.37;1.82;;;;;;;21.78;43.91;100529.08;1680804;83;21320;-58
2021/05/23 06:55:21;;;;;;;4.95;2.90;;;;;;;22.01;43.48;100529.02;1669181;85;21400;-59
2021/05/23 06:58:29;;;;;;;8.00;2.60;;;;;;;22.28;43.46;100532.09;1650130;85;21243;-59
2021/05/23 07:01:36;;;;;;;5.53;2.00;;;;;;;22.52;43.33;100537.34;1662031;85;21212;-59
2021/05/23 07:04:42;;;;;;;2.87;1.50;;;;;;;22.66;40.95;100542.91;1675369;85;21248;-59
2021/05/23 07:07:49;;;;;;;2.85;1.27;;;;;;;22.66;39.06;100534.55;1676122;85;21313;-59
2021/05/23 07:10:54;;;;;;;4.35;1.45;;;;;;;22.68;38.70;100540.73;1676194;85;21291;-56
2021/05/23 07:14:01;;;;;;;5.42;1.72;;;;;;;22.73;38.27;100539.44;1676305;85;21273;-58
2021/05/23 07:17:08;;;;;;;2.30;1.52;;;;;;;22.80;38.15;100541.50;1675811;85;21240;-58
2021/05/23 07:20:17;;;;;;;3.70;1.40;;;;;;;22.88;38.51;100541.66;1676333;84;21239;-59
2021/05/23 07:23:24;;;;;;;6.03;1.80;;;;;;;22.93;38.10;100541.75;1676046;85;21231;-59
2021/05/23 07:26:30;;;;;;;3.70;1.85;;;;;;;22.95;37.94;100540.94;1676177;85;21607;-59
2021/05/23 07:29:39;;;;;;;5.47;1.30;;;;;;;23.06;38.00;100546.45;1675862;85;21316;-58
2021/05/23 07:32:46;;;;;;;2.08;1.20;;;;;;;23.21;38.02;100538.87;1676569;85;21242;-59
2021/05/23 07:35:52;;;;;;;2.72;1.30;;;;;;;23.40;37.91;100543.14;1676580;85;21426;-59
2021/05/23 07:38:59;;;;;;;4.40;1.52;;;;;;;23.57;37.99;100539.22;1676356;85;21256;-58
2021/05/23 07:42:07;;;;;;;4.92;1.17;;;;;;;23.77;37.84;100545.64;1676228;85;21256;-59
2021/05/23 07:45:14;;;;;;;3.05;1.47;;;;;;;23.86;37.04;100540.45;1677039;83;21383;-59
2021/05/23 07:48:22;;;;;;;5.28;1.40;;;;;;;23.86;37.35;100542.72;1676570;85;21314;-59
2021/05/23 07:51:28;;;;;;;4.42;1.55;;;;;;;23.81;36.30;100548.23;1676362;83;21269;-60
2021/05/23 07:54:35;;;;;;;4.12;1.10;;;;;;;23.70;36.08;100549.19;1649344;86;21246;-59
2021/05/23 07:57:41;;;;;;;1.92;1.30;;;;;;;23.58;36.42;100547.03;1637045;87;21406;-58
2021/05/23 08:00:47;;;;;;;3.87;1.35;;;;;;;23.49;36.75;100549.44;1680017;85;21806;-60
2021/05/23 08:03:53;;;;;;;5.08;1.00;;;;;;;23.40;36.66;100555.71;1649896;87;21233;-59
2021/05/23 08:07:02;;;;;;;2.87;1.47;;;;;;;23.35;36.38;100553.69;1641477;87;21217;-60
2021/05/23 08:10:11;;;;;;;3.60;0.85;;;;;;;23.27;36.68;100551.31;1649515;86;21785;-58
2021/05/23 08:13:18;;;;;;;1.55;1.05;;;;;;;23.23;36.92;100553.45;1645310;87;21221;-59
2021/05/23 08:16:24;;;;;;;5.37;1.07;;;;;;;23.22;37.45;100553.13;1631563;87;21274;-58
2021/05/23 08:19:29;;;;;;;3.83;1.67;;;;;;;23.20;37.19;100554.78;1667366;85;21219;-59
2021/05/23 08:22:35;;;;;;;2.62;1.30;;;;;;;23.19;37.72;100557.30;1661001;85;21203;-59
2021/05/23 08:25:43;;;;;;;3.98;1.90;;;;;;;23.24;37.68;100565.77;1669743;85;21735;-59
2021/05/23 08:28:49;;;;;;;2.95;1.30;;;;;;;23.25;37.51;100563.80;1667902;85;21630;-61
2021/05/23 08:31:56;;;;;;;1.20;1.00;;;;;;;23.30;37.94;100573.16;1620205;88;21223;-59
2021/05/23 08:35:07;;;;;;;3.07;1.00;;;;;;;23.34;36.78;100579.09;1620548;88;21912;-57
2021/05/23 08:38:12;;;;;;;3.12;1.60;;;;;;;23.32;36.71;100577.95;1624310;87;21374;-58
2021/05/23 08:41:20;;;;;;;2.47;1.02;;;;;;;23.28;36.61;100584.27;1610694;87;21284;-59
2021/05/23 08:44:27;;;;;;;2.35;1.30;;;;;;;23.15;36.83;100580.41;1597667;88;21244;-60
2021/05/23 08:47:33;;;;;;;2.37;1.10;;;;;;;23.04;37.10;100581.33;1622802;87;21407;-58
2021/05/23 08:50:39;;;;;;;2.90;1.17;;;;;;;22.94;37.41;100576.95;1667208;85;21220;-58
2021/05/23 08:53:44;;;;;;;1.65;1.00;;;;;;;22.90;37.44;100580.78;1655628;83;21241;-57
2021/05/23 08:56:50;;;;;;;1.20;1.00;;;;;;;22.90;36.88;100579.93;1666165;85;21232;-59
2021/05/23 08:59:58;;;;;;;3.60;1.10;;;;;;;22.98;36.99;100575.33;1650078;85;21312;-59
2021/05/23 09:03:06;;;;;;;2.45;1.30;;;;;;;23.12;36.86;100564.98;1655968;85;21207;-57
2021/05/23 09:06:14;;;;;;;0.88;0.75;;;;;;;23.23;37.13;100563.23;1686565;85;21309;-58
2021/05/23 09:09:22;;;;;;;3.70;1.10;;;;;;;23.32;37.25;100561.73;1680343;85;21294;-59
2021/05/23 09:12:29;;;;;;;2.37;1.40;;;;;;;23.36;37.92;100568.48;1660394;85;21197;-58
2021/05/23 09:15:35;;;;;;;4.37;1.30;;;;;;;23.39;38.39;100562.37;1676212;85;21298;-57
2021/05/23 09:18:56;;;;;;;4.22;1.30;;;;;;;23.48;38.45;100567.86;1680368;85;21212;-59
2021/05/23 09:22:02;;;;;;;1.82;1.40;;;;;;;23.51;38.08;100564.01;1675013;83;21733;-59
2021/05/23 09:25:13;;;;;;;2.40;0.98;;;;;;;23.56;38.11;100558.47;1672666;83;21255;-59
2021/05/23 09:28:20;;;;;;;2.27;1.52;;;;;;;23.63;38.82;100549.91;1656833;83;21221;-59
2021/05/23 09:31:28;;;;;;;6.37;1.37;;;;;;;23.68;38.36;100551.92;1644357;87;21386;-59
2021/05/23 09:34:35;;;;;;;3.65;1.27;;;;;;;23.72;38.66;100549.78;1654263;83;21262;-60
2021/05/23 09:37:40;;;;;;;4.12;1.20;;;;;;;23.73;38.18;100550.61;1686662;85;21223;-59
2021/05/23 09:40:49;;;;;;;4.45;1.25;;;;;;;23.74;38.61;100550.92;1686647;85;21795;-59
2021/05/23 09:43:54;;;;;;;2.98;1.05;;;;;;;23.80;39.08;100547.91;1687301;85;21278;-58
2021/05/23 09:47:13;;;;;;;4.50;1.40;;;;;;;23.85;38.76;100545.77;1686829;85;21306;-59
2021/05/23 09:50:18;;;;;;;5.12;1.50;;;;;;;23.92;39.24;100547.27;1680537;85;21267;-58
2021/05/23 09:53:37;;;;;;;3.92;1.27;;;;;;;24.07;38.55;100545.27;1680296;85;21227;-60
2021/05/23 09:56:42;;;;;;;2.67;1.10;;;;;;;24.23;38.85;100540.98;1680393;85;21366;-61
2021/05/23 09:59:48;;;;;;;3.42;1.50;;;;;;;24.42;38.30;100547.92;1679964;83;21414;-59
2021/05/23 10:03:05;;;;;;;3.67;1.40;;;;;;;24.46;37.94;100544.05;1687137;85;21394;-58
2021/05/23 10:06:10;;;;;;;4.30;1.25;;;;;;;24.56;38.33;100545.00;1686806;85;21259;-57
2021/05/23 10:09:17;;;;;;;2.83;1.50;;;;;;;24.66;38.12;100542.36;1679985;85;21233;-58
2021/05/23 10:12:22;;;;;;;2.02;1.20;;;;;;;24.82;39.42;100540.01;1679801;85;21240;-58
2021/05/23 10:15:28;;;;;;;1.98;1.52;;;;;;;25.08;39.97;100540.23;1679985;85;21279;-57
2021/05/23 10:18:35;;;;;;;2.92;1.50;;;;;;;25.31;38.79;100533.70;1680132;85;21418;-58
2021/05/23 10:21:46;;;;;;;2.45;1.35;;;;;;;25.51;37.87;100530.25;1680175;85;21236;-59
2021/05/23 10:25:03;;;;;;;2.92;1.57;;;;;;;25.69;37.76;100541.05;1687018;85;21935;-57
2021/05/23 10:28:08;;;;;;;2.10;1.80;;;;;;;26.02;37.77;100536.49;1680178;85;21204;-59
2021/05/23 10:31:13;;;;;;;3.00;1.65;;;;;;;26.20;36.96;100535.99;1670025;83;21249;-59
2021/05/23 10:34:21;;;;;;;4.00;1.87;;;;;;;26.28;36.87;100534.92;1689578;84;21390;-60
2021/05/23 10:37:34;;;;;;;2.80;1.50;;;;;;;26.35;36.39;100522.03;1706049;84;21324;-61
2021/05/23 10:40:40;;;;;;;;;;;;;;;26.46;36.68;100529.37;1708958;84;21279;-58
2021/05/23 10:43:47;;;;;;;3.30;2.20;;;;;;;26.62;37.61;100523.22;1706152;84;20551;-59
2021/05/23 10:46:54;;;;;;;3.95;1.80;;;;;;;26.82;36.74;100525.54;1705567;84;21212;-58
2021/05/23 10:50:05;;;;;;;2.00;1.55;;;;;;;27.03;36.96;100527.26;1673141;83;21219;-58
2021/05/23 10:53:12;;;;;;;2.83;1.80;;;;;;;27.35;36.02;100519.98;1685197;82;21475;-59
2021/05/23 10:56:38;;;;;;;5.30;1.50;;;;;;;27.42;35.69;100516.30;1634820;85;21369;-60
2021/05/23 10:59:44;;;;;;;7.15;1.70;;;;;;;27.25;36.60;100526.41;1639888;86;21229;-59
2021/05/23 11:02:50;;;;;;;6.17;1.70;;;;;;;27.07;37.58;100517.12;1674504;83;21757;-59
2021/05/23 11:06:10;;;;;;;3.65;1.87;;;;;;;26.89;36.88;100529.48;1676401;83;21248;-58
2021/05/23 11:09:24;;;;;;;4.50;2.10;;;;;;;26.72;37.19;100535.93;1684088;83;21274;-59
2021/05/23 11:12:30;;;;;;;1.57;1.42;;;;;;;26.62;37.69;100518.45;1695930;83;21781;-59
2021/05/23 11:15:52;;;;;;;3.87;1.92;;;;;;;26.65;37.36;100528.31;1686859;83;21296;-59
2021/05/23 11:18:58;;;;;;;4.83;1.75;;;;;;;26.63;38.10;100524.90;1655453;85;21276;-57
2021/05/23 11:22:04;;;;;;;4.55;1.70;;;;;;;26.75;37.99;100506.69;1681667;85;21748;-60
2021/05/23 11:25:09;;;;;;;4.30;1.50;;;;;;;26.89;37.81;100507.01;1672110;85;21775;-58
2021/05/23 11:28:15;;;;;;;2.90;1.40;;;;;;;26.92;37.47;100507.30;1671242;83;21237;-59
2021/05/23 11:31:23;;;;;;;6.53;1.70;;;;;;;26.87;35.46;100503.62;1647982;86;21227;-59
2021/05/23 11:34:30;;;;;;;1.82;1.45;;;;;;;26.94;35.56;100500.81;1648351;86;21248;-59
2021/05/23 11:37:46;;;;;;;4.47;1.37;;;;;;;27.17;36.43;100495.20;1675533;83;21421;-58
2021/05/23 11:40:56;;;;;;;3.67;1.25;;;;;;;27.32;33.95;100493.25;1648736;86;21758;-59
2021/05/23 11:44:02;;;;;;;5.00;2.05;;;;;;;27.36;33.10;100483.69;1649706;86;21359;-59
2021/05/23 11:47:10;;;;;;;5.00;1.35;;;;;;;27.33;33.69;100486.52;1650175;86;21438;-59
2021/05/23 11:50:32;;;;;;;2.58;1.40;;;;;;;27.35;33.12;100503.92;1675700;83;21248;-57
2021/05/23 11:53:54;;;;;;;1.77;1.20;;;;;;;27.30;33.20;100501.14;1669566;83;21697;-59
2021/05/23 11:57:00;;;;;;;1.27;0.90;;;;;;;27.23;32.17;100494.92;1705669;83;21259;-59
2021/05/23 12:00:06;;;;;;;4.40;1.40;;;;;;;27.16;32.08;100494.34;1711079;84;21201;-59
2021/05/23 12:03:12;;;;;;;2.30;1.05;;;;;;;27.31;32.14;100490.72;1710754;84;21252;-60
2021/05/23 12:06:24;;;;;;;1.77;1.10;;;;;;;27.31;32.07;100480.87;1710801;84;21306;-60
2021/05/23 12:09:38;;;;;;;5.20;2.05;;;;;;;27.45;31.86;100469.31;1710331;84;21843;-61
2021/05/23 12:12:44;;;;;;;2.27;1.10;;;;;;;27.71;31.62;100466.18;1711051;84;21779;-60
2021/05/23 12:15:51;;;;;;;4.87;1.30;;;;;;;27.73;29.50;100467.30;1709796;84;21295;-57
2021/05/23 12:18:58;;;;;;;3.90;1.47;;;;;;;27.41;29.41;100471.88;1711144;84;21284;-59
2021/05/23 12:22:05;;;;;;;3.33;1.20;;;;;;;27.18;30.07;100473.83;1711127;84;21234;-59
2021/05/23 12:25:18;;;;;;;2.70;1.20;;;;;;;27.05;30.60;100480.02;1710805;84;21251;-56
2021/05/23 12:28:24;;;;;;;;;;;;;;;26.84;31.25;100479.75;1713045;84;21213;-58
2021/05/23 12:31:32;;;;;;;1.20;1.00;;;;;;;26.60;31.79;100483.33;1711420;84;20320;-59
2021/05/23 12:34:38;;;;;;;6.85;1.30;;;;;;;26.37;32.01;100482.72;1711155;84;21203;-58
2021/05/23 12:37:43;;;;;;;2.40;1.10;;;;;;;26.20;32.68;100477.05;1711176;84;21220;-58
2021/05/23 12:40:55;;;;;;;3.77;1.30;;;;;;;26.31;33.17;100485.23;1680796;85;21263;-58
2021/05/23 12:44:02;;;;;;;3.58;1.10;;;;;;;26.58;32.78;100487.81;1686828;85;21373;-58
2021/05/23 12:47:20;;;;;;;1.80;1.07;;;;;;;26.73;32.55;100485.63;1676439;83;21211;-58
2021/05/23 12:50:45;;;;;;;3.12;1.30;;;;;;;26.69;32.04;100483.11;1652153;85;21232;-58
2021/05/23 12:53:56;;;;;;;3.75;1.40;;;;;;;26.66;32.31;100481.69;1646346;87;21223;-58
2021/05/23 12:57:03;;;;;;;3.45;1.25;;;;;;;26.91;32.00;100488.73;1647805;85;21236;-60
2021/05/23 13:00:14;;;;;;;4.65;1.20;;;;;;;27.14;31.36;100488.19;1617573;88;21414;-61
2021/05/23 13:03:21;;;;;;;2.92;1.50;;;;;;;27.27;31.27;100487.66;1617586;89;21386;-59
2021/05/23 13:06:29;;;;;;;2.33;1.32;;;;;;;27.40;31.17;100498.30;1617702;88;21868;-57
2021/05/23 13:09:49;;;;;;;1.90;1.20;;;;;;;27.54;30.59;100492.95;1617457;88;21391;-59
2021/05/23 13:12:57;;;;;;;1.22;1.10;;;;;;;27.71;30.49;100489.24;1617560;88;21343;-57
2021/05/23 13:16:14;;;;;;;2.42;1.10;;;;;;;27.92;29.74;100489.50;1617399;88;21921;-58
2021/05/23 13:19:21;;;;;;;1.60;1.10;;;;;;;27.95;29.74;100501.59;1617548;88;21340;-58
2021/05/23 13:22:37;;;;;;;4.20;1.30;;;;;;;27.88;29.56;100488.37;1617304;88;21383;-61
2021/05/23 13:25:42;;;;;;;3.45;1.17;;;;;;;27.82;29.75;100488.08;1617440;89;21450;-59
2021/05/23 13:28:50;;;;;;;1.45;0.95;;;;;;;27.69;30.56;100492.34;1617213;89;21284;-59
2021/05/23 13:31:56;;;;;;;4.92;1.27;;;;;;;27.61;31.03;100496.30;1617912;88;21376;-59
2021/05/23 13:35:04;;;;;;;2.15;1.12;;;;;;;27.43;30.87;100494.92;1617544;88;21260;-58
2021/05/23 13:38:10;;;;;;;2.35;1.05;;;;;;;27.79;30.31;100499.91;1617100;89;21221;-59
2021/05/23 13:41:16;;;;;;;4.12;1.15;;;;;;;28.17;29.66;100505.42;1642071;87;21229;-57
2021/05/23 13:44:24;;;;;;;2.65;1.10;;;;;;;28.14;29.47;100500.38;1648325;85;21390;-59
2021/05/23 13:47:32;;;;;;;3.15;1.20;;;;;;;28.14;29.26;100490.52;1622632;88;21264;-58
2021/05/23 13:50:38;;;;;;;2.20;1.20;;;;;;;27.91;29.71;100491.19;1622583;88;21273;-56
2021/05/23 13:53:45;;;;;;;3.55;1.20;;;;;;;27.71;29.59;100490.65;1646225;87;21296;-61
2021/05/23 13:56:51;;;;;;;1.82;1.25;;;;;;;27.61;29.69;100495.73;1645484;87;21264;-62
2021/05/23 13:59:57;;;;;;;4.80;1.15;;;;;;;27.55;29.99;100489.85;1665786;83;21788;-59
2021/05/23 14:03:17;;;;;;;6.03;1.95;;;;;;;27.51;30.23;100494.34;1673575;85;21722;-57
2021/05/23 14:06:23;;;;;;;1.45;1.00;;;;;;;27.45;30.21;100491.27;1660046;85;21521;-61
2021/05/23 14:09:29;;;;;;;1.00;0.90;;;;;;;27.39;29.45;100493.81;1648780;87;21915;-59
2021/05/23 14:12:35;;;;;;;5.47;1.20;;;;;;;27.28;29.17;100488.48;1668219;85;21220;-60
2021/05/23 14:15:42;;;;;;;5.05;1.20;;;;;;;27.11;29.40;100479.47;1661294;85;21406;-58
2021/05/23 14:18:48;;;;;;;3.40;1.20;;;;;;;27.07;28.84;100492.38;1676626;85;21422;-58
2021/05/23 14:21:57;;;;;;;4.42;1.95;;;;;;;27.00;28.46;100485.66;1676880;85;21230;-57
2021/05/23 14:25:05;;;;;;;3.20;1.25;;;;;;;27.00;28.82;100488.48;1676098;85;21295;-58
2021/05/23 14:28:12;;;;;;;3.60;1.50;;;;;;;26.97;28.84;100489.59;1675955;85;21756;-57
2021/05/23 14:31:20;;;;;;;3.15;1.82;;;;;;;26.83;28.72;100491.27;1674658;85;21232;-59